Time;durP1;ratioP1;P1;durP2;ratioP2;P2;SDS_P1;SDS_P2;PMS_P1;PMS_P2;Temp;Humidity;BMP_temperature;BMP_pressure;BME280_temperature;BME280_humidity;BME280_pressure;Samples;Min_cycle;Max_cycle;Signal;HPM_P1;HPM_P2
2023/10/05 00:01:29;;;;;;;10.55;2.80;;;10.10;99.90;;;;;;4953673;28;20636;-83
2023/10/05 00:03:58;;;;;;;17.10;3.63;;;10.00;99.90;;;;;;4942950;28;20192;-84
2023/10/05 00:06:25;;;;;;;15.77;3.13;;;10.10;99.90;;;;;;4957994;28;20674;-84
2023/10/05 00:08:55;;;;;;;12.02;2.83;;;10.10;99.90;;;;;;4951294;28;20263;-83
2023/10/05 00:11:29;;;;;;;17.27;3.90;;;10.00;99.90;;;;;;4958687;28;20187;-84
2023/10/05 00:13:58;;;;;;;15.43;3.38;;;10.10;99.90;;;;;;4967003;28;20194;-83
2023/10/05 00:16:38;;;;;;;13.23;3.42;;;10.00;99.90;;;;;;4968800;28;20188;-84
2023/10/05 00:19:09;;;;;;;17.50;3.65;;;10.10;99.90;;;;;;4950513;28;20274;-84
2023/10/05 00:21:50;;;;;;;12.25;2.83;;;10.10;99.90;;;;;;4945010;28;20663;-84
2023/10/05 00:24:52;;;;;;;14.25;2.90;;;10.10;99.90;;;;;;4949008;29;20203;-84
2023/10/05 00:27:14;;;;;;;17.05;3.65;;;10.10;99.90;;;;;;4965143;28;20619;-83
2023/10/05 00:29:46;;;;;;;22.35;3.33;;;10.10;99.90;;;;;;4968203;28;20215;-84
2023/10/05 00:32:34;;;;;;;19.90;3.50;;;10.20;99.90;;;;;;4944961;28;20228;-83
2023/10/05 00:35:38;;;;;;;19.17;3.53;;;10.10;99.90;;;;;;4966644;28;20955;-85
2023/10/05 00:37:58;;;;;;;13.27;3.70;;;10.20;99.90;;;;;;4965931;28;20271;-84
2023/10/05 00:40:35;;;;;;;14.95;3.63;;;10.20;99.90;;;;;;4950433;28;20199;-83
2023/10/05 00:43:14;;;;;;;20.42;3.75;;;10.20;99.90;;;;;;4950714;28;20236;-84
2023/10/05 00:45:46;;;;;;;11.57;3.50;;;10.20;99.90;;;;;;4941774;28;20192;-83
2023/10/05 00:48:30;;;;;;;20.67;3.60;;;10.20;99.90;;;;;;4968572;28;20263;-84
2023/10/05 00:51:07;;;;;;;10.15;3.40;;;10.20;99.90;;;;;;4951091;28;20190;-84
2023/10/05 00:53:36;;;;;;;15.50;3.92;;;10.20;99.90;;;;;;4964948;28;20194;-83
2023/10/05 00:56:08;;;;;;;17.58;3.70;;;10.20;99.90;;;;;;4949697;28;20894;-83
2023/10/05 00:58:44;;;;;;;20.92;3.90;;;10.20;99.90;;;;;;4951738;28;20210;-83
2023/10/05 01:01:15;;;;;;;20.77;3.78;;;10.20;99.90;;;;;;4950462;28;20199;-83
2023/10/05 01:06:40;;;;;;;32.80;4.65;;;10.20;99.90;;;;;;4966433;28;20192;-84
2023/10/05 01:09:24;;;;;;;16.63;3.92;;;10.20;99.90;;;;;;4951006;28;20247;-83
2023/10/05 01:11:54;;;;;;;20.52;4.30;;;10.10;99.90;;;;;;4950496;28;20190;-84
2023/10/05 01:14:25;;;;;;;12.85;4.20;;;10.20;99.90;;;;;;4948734;28;20191;-84
2023/10/05 01:16:54;;;;;;;19.05;4.03;;;10.10;99.90;;;;;;4950043;28;20191;-84
2023/10/05 01:19:21;;;;;;;13.18;3.90;;;10.10;99.90;;;;;;4968139;28;20214;-84
2023/10/05 01:21:51;;;;;;;16.92;4.97;;;10.00;99.90;;;;;;4949756;28;20192;-83
2023/10/05 01:24:23;;;;;;;18.80;4.65;;;10.00;99.90;;;;;;4931522;29;20223;-84
2023/10/05 01:26:51;;;;;;;17.63;4.50;;;10.00;99.90;;;;;;4947703;28;20638;-84
2023/10/05 01:29:18;;;;;;;19.98;4.40;;;10.00;99.90;;;;;;4967593;28;20195;-84
2023/10/05 01:31:46;;;;;;;10.55;3.78;;;10.00;99.90;;;;;;4950883;28;20579;-84
2023/10/05 01:34:13;;;;;;;17.10;4.35;;;10.00;99.90;;;;;;4934401;28;20346;-83
2023/10/05 01:36:42;;;;;;;22.55;4.63;;;10.00;99.90;;;;;;4948039;29;20615;-83
2023/10/05 01:39:12;;;;;;;17.08;4.25;;;10.00;99.90;;;;;;4947822;28;20212;-83
2023/10/05 01:41:40;;;;;;;19.63;4.88;;;10.00;99.90;;;;;;4968392;28;20191;-84
2023/10/05 01:44:08;;;;;;;15.35;4.78;;;10.00;99.90;;;;;;4949677;28;20226;-84
2023/10/05 01:46:36;;;;;;;16.70;4.43;;;10.00;99.90;;;;;;4965565;28;20911;-84
2023/10/05 01:49:04;;;;;;;16.23;4.28;;;10.00;99.90;;;;;;4967180;28;20188;-83
2023/10/05 01:51:32;;;;;;;18.75;4.85;;;9.90;99.90;;;;;;4948143;28;20195;-84
2023/10/05 01:54:10;;;;;;;14.77;4.30;;;9.90;99.90;;;;;;4950094;28;20279;-84
2023/10/05 01:56:39;;;;;;;16.65;4.78;;;10.00;99.90;;;;;;4967585;28;20563;-84
2023/10/05 01:59:07;;;;;;;17.40;4.50;;;9.90;99.90;;;;;;4946101;29;20283;-84
2023/10/05 02:01:39;;;;;;;18.42;4.93;;;9.90;99.90;;;;;;4947487;28;20211;-84
2023/10/05 02:04:09;;;;;;;16.67;4.95;;;9.90;99.90;;;;;;4950816;28;20204;-84
2023/10/05 02:06:42;;;;;;;20.25;5.05;;;9.90;99.90;;;;;;4944686;28;20215;-84
2023/10/05 02:09:10;;;;;;;17.50;5.20;;;9.90;99.90;;;;;;4967465;28;20199;-84
2023/10/05 02:11:40;;;;;;;18.25;4.85;;;9.90;99.90;;;;;;4965186;28;20217;-84
2023/10/05 02:14:12;;;;;;;21.80;5.30;;;9.80;99.90;;;;;;4950075;28;20231;-84
2023/10/05 02:16:41;;;;;;;17.55;4.95;;;9.80;99.90;;;;;;4934153;28;20566;-84
2023/10/05 02:19:09;;;;;;;22.25;5.35;;;9.80;99.90;;;;;;4949634;28;20204;-84
2023/10/05 02:21:37;;;;;;;17.55;5.22;;;9.80;99.90;;;;;;4951498;28;20199;-83
2023/10/05 02:24:18;;;;;;;14.90;4.43;;;9.80;99.90;;;;;;4953983;28;20306;-84
2023/10/05 02:29:29;;;;;;;19.92;5.85;;;9.80;99.90;;;;;;4967946;28;20191;-84
2023/10/05 02:37:05;;;;;;;20.17;5.05;;;9.70;99.90;;;;;;4932300;29;20197;-84
2023/10/05 02:39:36;;;;;;;22.10;5.38;;;9.80;99.90;;;;;;4915289;29;20194;-83
2023/10/05 02:42:07;;;;;;;21.13;5.38;;;9.70;99.90;;;;;;4931976;29;20181;-83
2023/10/05 02:44:37;;;;;;;21.48;5.38;;;9.70;99.90;;;;;;4927880;29;20193;-84
2023/10/05 02:47:10;;;;;;;16.02;4.93;;;9.80;99.90;;;;;;4929522;29;20209;-84
2023/10/05 02:49:47;;;;;;;16.25;4.93;;;9.70;99.90;;;;;;4933658;29;20190;-84
2023/10/05 02:52:16;;;;;;;17.55;4.78;;;9.70;99.90;;;;;;4925507;29;20833;-84
2023/10/05 02:54:47;;;;;;;17.60;5.43;;;9.70;99.90;;;;;;4942211;29;20748;-84
2023/10/05 02:57:16;;;;;;;21.40;5.38;;;9.70;99.90;;;;;;4929745;29;20197;-84
2023/10/05 02:59:45;;;;;;;18.15;5.68;;;9.70;99.90;;;;;;4930786;29;20840;-83
2023/10/05 03:02:17;;;;;;;14.40;4.70;;;9.70;99.90;;;;;;4930088;29;20197;-84
2023/10/05 03:04:49;;;;;;;16.63;5.03;;;9.70;99.90;;;;;;4927194;29;20194;-85
2023/10/05 03:07:24;;;;;;;21.85;5.25;;;9.60;99.90;;;;;;4914790;29;20209;-84
2023/10/05 03:09:59;;;;;;;21.33;5.22;;;9.60;99.90;;;;;;4931322;29;20673;-84
2023/10/05 03:12:32;;;;;;;19.20;5.13;;;9.60;99.90;;;;;;4946144;29;20208;-84
2023/10/05 03:15:06;;;;;;;14.25;4.85;;;9.70;99.90;;;;;;4930051;29;20289;-83
2023/10/05 03:17:39;;;;;;;18.80;5.00;;;9.60;99.90;;;;;;4929056;29;20195;-84
2023/10/05 03:20:15;;;;;;;18.42;4.55;;;9.70;99.90;;;;;;4928051;29;20202;-84
2023/10/05 03:22:46;;;;;;;16.63;4.97;;;9.60;99.90;;;;;;4921808;29;20204;-84
2023/10/05 03:25:16;;;;;;;19.45;5.45;;;9.60;99.90;;;;;;4914306;29;20252;-84
2023/10/05 03:27:46;;;;;;;19.75;4.60;;;9.60;99.90;;;;;;4937181;29;20193;-84
2023/10/05 03:30:14;;;;;;;17.33;4.22;;;9.60;99.90;;;;;;4930057;29;20189;-84
2023/10/05 03:32:48;;;;;;;24.95;4.90;;;9.60;99.90;;;;;;4912157;29;20277;-84
2023/10/05 03:35:22;;;;;;;19.65;4.80;;;9.60;99.90;;;;;;4924002;29;20205;-84
2023/10/05 03:37:50;;;;;;;15.73;4.53;;;9.60;99.90;;;;;;4945359;29;20197;-84
2023/10/05 03:40:25;;;;;;;23.65;5.05;;;9.60;99.90;;;;;;4930652;29;20201;-84
2023/10/05 03:43:00;;;;;;;22.67;5.63;;;9.60;99.90;;;;;;4930068;29;20746;-83
2023/10/05 03:45:32;;;;;;;22.25;5.38;;;9.50;99.90;;;;;;4939244;29;20241;-84
2023/10/05 03:48:01;;;;;;;20.08;4.88;;;9.50;99.90;;;;;;4929082;29;20189;-84
2023/10/05 03:50:31;;;;;;;20.35;4.47;;;9.50;99.90;;;;;;4929542;29;20201;-84
2023/10/05 03:53:00;;;;;;;24.23;5.15;;;9.50;99.90;;;;;;4930414;29;20193;-84
2023/10/05 03:55:27;;;;;;;19.73;4.47;;;9.50;99.90;;;;;;4928326;29;20297;-84
2023/10/05 03:57:57;;;;;;;24.75;4.53;;;9.50;99.90;;;;;;4920262;29;20212;-84
2023/10/05 04:00:34;;;;;;;16.77;4.43;;;9.50;99.90;;;;;;4929125;29;20224;-84
2023/10/05 04:03:06;;;;;;;20.33;4.45;;;9.50;99.90;;;;;;4912599;29;20210;-83
2023/10/05 04:05:39;;;;;;;14.48;4.60;;;9.50;99.90;;;;;;4920564;29;20197;-84
2023/10/05 04:08:16;;;;;;;15.88;4.07;;;9.50;99.90;;;;;;4930396;29;20195;-84
2023/10/05 04:10:49;;;;;;;21.33;5.30;;;9.60;99.90;;;;;;4928987;29;20193;-84
2023/10/05 04:13:20;;;;;;;16.23;4.97;;;9.60;99.90;;;;;;4930058;29;20224;-83
2023/10/05 04:15:47;;;;;;;20.60;5.43;;;9.50;99.90;;;;;;4929425;29;20217;-84
2023/10/05 04:18:15;;;;;;;20.30;5.28;;;9.40;99.90;;;;;;4927750;29;20220;-84
2023/10/05 04:20:46;;;;;;;14.80;5.05;;;9.40;99.90;;;;;;4926612;29;20205;-83
2023/10/05 04:23:25;;;;;;;19.40;5.80;;;9.40;99.90;;;;;;4927868;29;21014;-83
2023/10/05 04:25:57;;;;;;;21.17;5.75;;;9.30;99.90;;;;;;4930692;29;20189;-83
2023/10/05 04:28:35;;;;;;;13.82;5.00;;;9.30;99.90;;;;;;4930989;29;20185;-83
2023/10/05 04:31:10;;;;;;;28.40;6.22;;;9.30;99.90;;;;;;4927910;28;20231;-83
2023/10/05 04:33:39;;;;;;;23.25;5.47;;;9.30;99.90;;;;;;4932041;28;20204;-83
2023/10/05 04:36:07;;;;;;;17.83;5.70;;;9.30;99.90;;;;;;4949492;28;20211;-83
2023/10/05 04:38:35;;;;;;;18.75;5.07;;;9.20;99.90;;;;;;4942419;28;20222;-83
2023/10/05 04:41:02;;;;;;;20.67;5.32;;;9.20;99.90;;;;;;4967712;28;20192;-84
2023/10/05 04:43:30;;;;;;;25.08;6.63;;;9.20;99.90;;;;;;4946863;28;20200;-83
2023/10/05 04:46:04;;;;;;;21.40;5.50;;;9.10;99.90;;;;;;4952693;28;20199;-84
2023/10/05 04:48:33;;;;;;;17.55;5.40;;;9.20;99.90;;;;;;4933019;28;20588;-84
2023/10/05 04:51:01;;;;;;;22.13;5.45;;;9.20;99.90;;;;;;4950818;28;20275;-84
2023/10/05 04:53:30;;;;;;;19.33;5.63;;;9.20;99.90;;;;;;4955503;28;20192;-84
2023/10/05 04:56:12;;;;;;;15.50;5.63;;;9.20;99.90;;;;;;4935138;28;20203;-83
2023/10/05 05:01:36;;;;;;;21.88;5.68;;;9.20;99.90;;;;;;4932110;28;20222;-84
2023/10/05 05:04:27;;;;;;;22.65;5.95;;;9.30;99.90;;;;;;4967904;28;20199;-84
2023/10/05 05:06:59;;;;;;;25.60;6.05;;;9.20;99.90;;;;;;4961089;28;20292;-84
2023/10/05 05:09:34;;;;;;;19.33;5.82;;;9.20;99.90;;;;;;4965390;28;20283;-84
2023/10/05 05:12:03;;;;;;;21.77;5.57;;;9.20;99.90;;;;;;4967960;28;20591;-84
2023/10/05 05:14:35;;;;;;;19.67;5.05;;;9.20;99.90;;;;;;4967851;28;20243;-83
2023/10/05 05:17:06;;;;;;;21.58;5.43;;;9.10;99.90;;;;;;4968053;28;20183;-83
2023/10/05 05:19:36;;;;;;;19.77;5.15;;;9.10;99.90;;;;;;4932952;28;20628;-84
2023/10/05 05:22:05;;;;;;;19.40;4.50;;;9.10;99.90;;;;;;4949674;28;20669;-84
2023/10/05 05:24:33;;;;;;;17.08;4.68;;;9.20;99.90;;;;;;4949458;28;20227;-85
2023/10/05 05:27:01;;;;;;;22.83;5.40;;;9.20;99.90;;;;;;4967881;28;20199;-85
2023/10/05 05:29:34;;;;;;;16.42;4.43;;;9.20;99.90;;;;;;4950658;28;20200;-85
2023/10/05 05:32:09;;;;;;;14.73;4.53;;;9.10;99.90;;;;;;4943583;28;20237;-85
2023/10/05 05:34:38;;;;;;;21.77;4.43;;;9.10;99.90;;;;;;4949399;28;20194;-85
2023/10/05 05:37:05;;;;;;;17.20;4.57;;;9.10;99.90;;;;;;4942639;28;20207;-84
2023/10/05 05:39:39;;;;;;;26.77;4.85;;;9.10;99.90;;;;;;4950412;28;20196;-84
2023/10/05 05:42:13;;;;;;;16.60;4.53;;;9.20;99.90;;;;;;4956521;28;20583;-86
2023/10/05 05:44:41;;;;;;;17.23;4.20;;;9.20;99.90;;;;;;4950653;28;20211;-84
2023/10/05 05:47:10;;;;;;;20.25;4.25;;;9.20;99.90;;;;;;4950359;28;20703;-85
2023/10/05 05:49:39;;;;;;;22.73;4.03;;;9.20;99.90;;;;;;4946435;28;20195;-85
2023/10/05 05:52:08;;;;;;;20.83;4.45;;;9.20;99.90;;;;;;4965281;28;20199;-85
2023/10/05 05:54:36;;;;;;;18.48;3.95;;;9.20;99.90;;;;;;4940132;28;20203;-85
2023/10/05 05:57:07;;;;;;;17.05;4.07;;;9.20;99.90;;;;;;4954445;28;20275;-86
2023/10/05 05:59:35;;;;;;;21.98;4.35;;;9.20;99.90;;;;;;4954820;28;20664;-84
2023/10/05 06:02:11;;;;;;;21.42;4.18;;;9.30;99.90;;;;;;4954727;28;20219;-85
2023/10/05 06:04:40;;;;;;;14.20;4.43;;;9.30;99.90;;;;;;4951373;28;20207;-85
2023/10/05 06:07:11;;;;;;;17.20;3.58;;;9.30;99.90;;;;;;4964645;28;20212;-85
2023/10/05 06:09:46;;;;;;;13.38;4.03;;;9.30;99.90;;;;;;4944991;28;20192;-85
2023/10/05 06:12:15;;;;;;;18.50;4.07;;;9.30;99.90;;;;;;4963570;28;20274;-84
2023/10/05 06:14:43;;;;;;;16.17;4.45;;;9.40;99.90;;;;;;4953408;28;20188;-84
2023/10/05 06:17:11;;;;;;;10.98;3.38;;;9.30;99.90;;;;;;4971041;28;20710;-84
2023/10/05 06:19:39;;;;;;;16.75;4.50;;;9.40;99.90;;;;;;4953823;28;21018;-85
2023/10/05 06:22:07;;;;;;;17.20;3.80;;;9.40;99.90;;;;;;4963301;28;20279;-85
2023/10/05 06:24:42;;;;;;;14.85;4.45;;;9.40;99.90;;;;;;4950508;29;20954;-85
2023/10/05 06:27:10;;;;;;;20.52;4.45;;;9.50;99.90;;;;;;4940097;28;20216;-84
2023/10/05 06:29:37;;;;;;;21.20;4.30;;;9.50;99.90;;;;;;4970779;28;20602;-85
2023/10/05 06:32:05;;;;;;;14.07;3.38;;;9.50;99.90;;;;;;4937007;28;20231;-85
2023/10/05 06:34:34;;;;;;;12.88;3.70;;;9.50;99.90;;;;;;4970437;28;20200;-85
2023/10/05 06:37:02;;;;;;;14.15;4.00;;;9.50;99.90;;;;;;4942900;28;20200;-85
2023/10/05 06:39:30;;;;;;;16.30;4.22;;;9.50;99.90;;;;;;4950320;28;20287;-85
2023/10/05 06:41:58;;;;;;;16.20;4.60;;;9.60;99.90;;;;;;4952459;28;20204;-85
2023/10/05 06:44:30;;;;;;;12.52;4.70;;;9.50;99.90;;;;;;4949460;29;20267;-85
2023/10/05 06:47:02;;;;;;;15.45;3.75;;;9.60;99.90;;;;;;4930845;28;20559;-85
2023/10/05 06:49:30;;;;;;;11.75;3.45;;;9.60;99.90;;;;;;4970098;28;20188;-84
2023/10/05 06:51:58;;;;;;;8.38;3.22;;;9.60;99.90;;;;;;4952392;28;20679;-85
2023/10/05 06:54:25;;;;;;;6.13;2.80;;;9.60;99.90;;;;;;4971081;28;20216;-85
2023/10/05 06:56:53;;;;;;;7.78;3.38;;;9.60;99.90;;;;;;4969483;28;20282;-85
2023/10/05 06:59:25;;;;;;;11.65;3.45;;;9.60;99.90;;;;;;4960634;28;20885;-85
2023/10/05 07:01:52;;;;;;;8.52;2.85;;;9.70;99.90;;;;;;4953024;28;20192;-85
2023/10/05 07:04:24;;;;;;;7.63;2.63;;;9.70;99.90;;;;;;4950003;28;20208;-85
2023/10/05 07:06:52;;;;;;;7.10;2.08;;;9.70;99.90;;;;;;4948910;28;20192;-86
2023/10/05 07:09:24;;;;;;;6.10;2.38;;;9.70;99.90;;;;;;4969812;28;20684;-85
2023/10/05 07:11:51;;;;;;;6.30;2.17;;;9.70;99.90;;;;;;4952196;28;20276;-85
2023/10/05 07:14:19;;;;;;;6.70;1.90;;;9.70;99.90;;;;;;4953085;28;20196;-85
2023/10/05 07:16:47;;;;;;;8.48;2.08;;;9.80;99.90;;;;;;4935921;28;20199;-85
2023/10/05 07:19:16;;;;;;;5.32;1.70;;;9.80;99.90;;;;;;4969003;28;20223;-85
2023/10/05 07:21:44;;;;;;;5.82;1.30;;;9.80;99.90;;;;;;4969358;28;20192;-85
2023/10/05 07:24:12;;;;;;;7.45;1.80;;;9.90;99.90;;;;;;4969566;28;20208;-85
2023/10/05 07:26:39;;;;;;;6.80;1.65;;;9.90;99.90;;;;;;4951764;28;20251;-85
2023/10/05 07:29:08;;;;;;;5.15;1.80;;;10.00;99.90;;;;;;4969104;28;20188;-85
2023/10/05 07:31:56;;;;;;;4.65;1.45;;;10.00;99.90;;;;;;4951790;28;20710;-85
2023/10/05 07:34:27;;;;;;;3.60;1.25;;;10.00;99.90;;;;;;4937031;28;20578;-84
2023/10/05 07:36:55;;;;;;;3.90;1.30;;;10.00;99.90;;;;;;4969483;28;20188;-85
2023/10/05 07:39:23;;;;;;;4.70;1.30;;;10.00;99.90;;;;;;4951474;28;20670;-85
2023/10/05 07:41:51;;;;;;;6.43;1.45;;;10.00;99.90;;;;;;4969106;28;20698;-85
2023/10/05 07:44:18;;;;;;;3.40;1.08;;;10.00;99.90;;;;;;4967558;28;20707;-86
2023/10/05 07:46:47;;;;;;;4.50;1.25;;;10.10;99.90;;;;;;4965558;28;20999;-85
2023/10/05 07:49:15;;;;;;;4.05;1.20;;;10.10;99.90;;;;;;4960510;28;20733;-85
2023/10/05 07:51:42;;;;;;;2.80;1.45;;;10.10;99.90;;;;;;4948356;28;20204;-84
2023/10/05 07:54:10;;;;;;;2.75;1.50;;;10.10;99.90;;;;;;4969244;28;20196;-85
2023/10/05 07:56:37;;;;;;;3.40;1.25;;;10.10;99.90;;;;;;4969307;28;20210;-85
2023/10/05 07:59:06;;;;;;;4.00;1.55;;;10.10;99.90;;;;;;4957101;28;20200;-84
2023/10/05 08:01:34;;;;;;;6.40;1.30;;;10.10;99.90;;;;;;4961574;28;20203;-84
2023/10/05 08:04:02;;;;;;;4.38;1.20;;;10.20;99.90;;;;;;4968647;28;20266;-84
2023/10/05 08:06:30;;;;;;;3.35;1.40;;;10.20;99.90;;;;;;4935416;28;20714;-85
2023/10/05 08:08:57;;;;;;;3.90;1.35;;;10.20;99.90;;;;;;4949789;28;20206;-84
2023/10/05 08:11:25;;;;;;;3.83;1.23;;;10.20;99.90;;;;;;4967835;28;20188;-84
2023/10/05 08:13:52;;;;;;;5.60;1.40;;;10.20;99.90;;;;;;4949685;28;20189;-84
2023/10/05 08:16:22;;;;;;;4.13;1.45;;;10.20;99.90;;;;;;4969170;28;20195;-84
2023/10/05 08:18:50;;;;;;;5.40;1.50;;;10.20;99.90;;;;;;4952835;28;20320;-85
2023/10/05 08:21:18;;;;;;;3.38;1.20;;;10.20;99.90;;;;;;4970361;28;20199;-84
2023/10/05 08:23:45;;;;;;;7.10;1.58;;;10.20;99.90;;;;;;4960627;28;20270;-84
2023/10/05 08:26:15;;;;;;;6.03;1.50;;;10.20;99.90;;;;;;4970285;28;20329;-84
2023/10/05 08:28:42;;;;;;;3.13;1.30;;;10.20;99.90;;;;;;4970184;28;20188;-84
2023/10/05 08:31:11;;;;;;;2.80;1.20;;;10.30;99.90;;;;;;4952391;28;20235;-83
2023/10/05 08:33:38;;;;;;;2.80;1.17;;;10.30;99.90;;;;;;4953552;28;20188;-84
2023/10/05 08:36:11;;;;;;;2.22;0.90;;;10.30;99.90;;;;;;4943227;28;20180;-84
2023/10/05 08:38:39;;;;;;;3.65;1.27;;;10.30;99.90;;;;;;4970686;28;20196;-84
2023/10/05 08:41:11;;;;;;;1.75;1.10;;;10.30;99.90;;;;;;4970586;28;20671;-84
2023/10/05 08:43:40;;;;;;;2.92;1.20;;;10.30;99.90;;;;;;4965666;28;20188;-85
2023/10/05 08:46:10;;;;;;;2.83;0.90;;;10.30;99.90;;;;;;4953903;28;20202;-84
2023/10/05 08:48:46;;;;;;;2.35;1.08;;;10.30;99.90;;;;;;5081524;27;20563;-85
2023/10/05 08:51:14;;;;;;;3.47;1.50;;;10.30;99.90;;;;;;5081542;28;20238;-84
2023/10/05 08:53:44;;;;;;;3.30;1.35;;;10.30;99.90;;;;;;5081486;28;20191;-84
2023/10/05 08:56:15;;;;;;;1.90;0.98;;;10.30;99.90;;;;;;5079962;28;20188;-85
2023/10/05 08:58:45;;;;;;;6.10;1.67;;;10.30;99.90;;;;;;5068992;28;20793;-85
2023/10/05 09:01:24;;;;;;;3.03;1.13;;;10.40;99.90;;;;;;5070898;28;20366;-85
2023/10/05 09:06:55;;;;;;;2.05;1.02;;;10.40;99.90;;;;;;5074243;28;20184;-85
2023/10/05 09:09:51;;;;;;;5.03;1.38;;;10.40;99.90;;;;;;5078318;28;20662;-84
2023/10/05 09:12:34;;;;;;;3.85;1.42;;;10.40;99.90;;;;;;5072678;28;20673;-85
2023/10/05 09:15:05;;;;;;;4.40;1.27;;;10.40;99.90;;;;;;5072719;28;20219;-85
2023/10/05 09:17:35;;;;;;;2.70;1.15;;;10.40;99.90;;;;;;5075056;28;20276;-85
2023/10/05 09:20:22;;;;;;;2.22;1.05;;;10.40;99.90;;;;;;5093208;28;20216;-85
2023/10/05 09:22:56;;;;;;;3.65;1.30;;;10.50;99.90;;;;;;5109833;28;20654;-85
2023/10/05 09:25:30;;;;;;;2.72;1.17;;;10.50;99.90;;;;;;5077331;28;20219;-85
2023/10/05 09:28:09;;;;;;;3.42;1.42;;;10.50;99.90;;;;;;5088009;28;20211;-85
2023/10/05 09:30:46;;;;;;;3.13;1.42;;;10.50;99.90;;;;;;5081003;28;21019;-85
2023/10/05 09:33:18;;;;;;;2.75;1.33;;;10.50;99.90;;;;;;5069879;28;20183;-85
2023/10/05 09:35:46;;;;;;;3.15;1.25;;;10.50;99.90;;;;;;5073406;28;20274;-85
2023/10/05 09:38:17;;;;;;;4.75;1.40;;;10.50;99.90;;;;;;5073265;28;20195;-85
2023/10/05 09:40:47;;;;;;;6.25;1.25;;;10.50;99.90;;;;;;5106738;28;20188;-85
2023/10/05 09:43:19;;;;;;;3.70;1.63;;;10.50;99.90;;;;;;5076807;28;20189;-84
2023/10/05 09:45:52;;;;;;;3.15;1.55;;;10.40;99.90;;;;;;5081193;28;20209;-84
2023/10/05 09:48:21;;;;;;;2.97;1.38;;;10.50;99.90;;;;;;5076303;28;20231;-85
2023/10/05 09:50:49;;;;;;;2.75;1.35;;;10.50;99.90;;;;;;5076383;28;20684;-84
2023/10/05 09:53:20;;;;;;;3.65;1.75;;;10.50;99.90;;;;;;5090514;28;20554;-84
2023/10/05 09:55:53;;;;;;;3.30;1.40;;;10.50;99.90;;;;;;5068084;28;20548;-84
2023/10/05 09:58:21;;;;;;;4.63;1.67;;;10.40;99.90;;;;;;5070162;28;20269;-84
2023/10/05 10:00:50;;;;;;;3.33;1.40;;;10.50;99.90;;;;;;5063100;28;20201;-85
2023/10/05 10:03:19;;;;;;;3.78;1.85;;;10.40;99.90;;;;;;5058868;28;20205;-83
2023/10/05 10:06:07;;;;;;;3.40;1.50;;;10.50;99.90;;;;;;5058015;28;20537;-84
2023/10/05 10:08:53;;;;;;;3.55;1.50;;;10.40;99.90;;;;;;5066115;28;20198;-85
2023/10/05 10:11:27;;;;;;;3.35;1.58;;;10.50;99.90;;;;;;5092260;28;20199;-85
2023/10/05 10:14:05;;;;;;;3.35;1.77;;;10.50;99.90;;;;;;5062377;28;20182;-85
2023/10/05 10:16:41;;;;;;;5.22;1.77;;;10.50;99.90;;;;;;5062271;28;20185;-85
2023/10/05 10:19:23;;;;;;;7.57;2.03;;;10.60;99.90;;;;;;5059741;28;20216;-83
2023/10/05 10:21:59;;;;;;;5.35;1.70;;;10.50;99.90;;;;;;5062265;28;20548;-85
2023/10/05 10:24:29;;;;;;;4.80;1.77;;;10.50;99.90;;;;;;5059735;28;20191;-84
2023/10/05 10:27:08;;;;;;;4.82;1.92;;;10.50;99.90;;;;;;5067026;28;20699;-84
2023/10/05 10:29:58;;;;;;;2.72;1.42;;;10.50;99.90;;;;;;5058052;28;20241;-85
2023/10/05 10:32:32;;;;;;;4.88;2.10;;;10.50;99.90;;;;;;5063574;28;20184;-84
2023/10/05 10:35:12;;;;;;;5.28;2.10;;;10.50;99.90;;;;;;5056089;28;20275;-85
2023/10/05 10:37:44;;;;;;;3.45;2.10;;;10.50;99.90;;;;;;5089274;28;20193;-84
2023/10/05 10:42:51;;;;;;;3.38;2.00;;;10.50;99.90;;;;;;5059347;28;20264;-85
2023/10/05 10:45:28;;;;;;;5.40;2.45;;;10.50;99.90;;;;;;5059559;28;20193;-85
2023/10/05 10:47:56;;;;;;;6.10;2.33;;;10.50;99.90;;;;;;5064191;28;20706;-84
2023/10/05 10:50:30;;;;;;;3.47;2.47;;;10.50;99.90;;;;;;5053834;28;20199;-84
2023/10/05 10:52:59;;;;;;;6.72;3.22;;;10.50;99.90;;;;;;5067284;28;20555;-84
2023/10/05 10:55:32;;;;;;;5.15;2.60;;;10.60;99.90;;;;;;5050412;28;20192;-85
2023/10/05 10:58:08;;;;;;;6.05;3.13;;;10.60;99.90;;;;;;5094542;28;20192;-85
2023/10/05 11:03:11;;;;;;;7.53;3.95;;;10.60;99.90;;;;;;5083287;28;20189;-84
2023/10/05 11:05:40;;;;;;;5.03;3.25;;;10.60;99.90;;;;;;5062681;28;20242;-84
2023/10/05 11:08:15;;;;;;;8.88;3.83;;;10.60;99.90;;;;;;5061390;28;20231;-85
2023/10/05 11:10:42;;;;;;;8.70;3.70;;;10.60;99.90;;;;;;5061558;28;20189;-84
2023/10/05 11:13:20;;;;;;;7.57;4.40;;;10.60;99.90;;;;;;5055349;28;20185;-85
2023/10/05 11:15:58;;;;;;;9.10;4.68;;;10.60;99.90;;;;;;5062814;28;20192;-85
2023/10/05 11:18:31;;;;;;;7.15;4.18;;;10.70;99.90;;;;;;5056942;28;20216;-85
2023/10/05 11:21:14;;;;;;;8.35;3.97;;;10.60;99.90;;;;;;5067884;28;20218;-84
2023/10/05 11:23:43;;;;;;;6.55;3.85;;;10.60;99.90;;;;;;5061747;28;20192;-84
2023/10/05 11:26:18;;;;;;;6.55;4.10;;;10.60;99.90;;;;;;5068583;28;20773;-84
2023/10/05 11:28:49;;;;;;;10.40;4.43;;;10.60;99.90;;;;;;5060424;28;20203;-85
2023/10/05 11:31:26;;;;;;;12.20;4.93;;;10.50;99.90;;;;;;5076166;28;20218;-85
2023/10/05 11:34:19;;;;;;;7.82;4.32;;;10.50;99.90;;;;;;5057495;28;20191;-84
2023/10/05 11:37:15;;;;;;;6.93;4.15;;;10.50;99.90;;;;;;5077029;28;20196;-84
2023/10/05 11:39:49;;;;;;;11.35;4.50;;;10.50;99.90;;;;;;5059668;28;20893;-84
2023/10/05 11:42:24;;;;;;;9.68;4.78;;;10.50;99.90;;;;;;5080653;28;20547;-84
2023/10/05 11:44:59;;;;;;;11.38;4.82;;;10.50;99.90;;;;;;5058242;28;20675;-84
2023/10/05 11:47:35;;;;;;;14.60;7.20;;;10.50;99.90;;;;;;5058037;28;20317;-83
2023/10/05 11:50:08;;;;;;;12.63;6.63;;;10.40;99.90;;;;;;5049006;28;20549;-83
2023/10/05 11:52:38;;;;;;;12.55;6.78;;;10.40;99.90;;;;;;5052929;28;20280;-83
2023/10/05 11:55:11;;;;;;;15.80;7.70;;;10.40;99.90;;;;;;5047579;28;20616;-83
2023/10/05 11:57:40;;;;;;;16.55;9.05;;;10.30;99.90;;;;;;5038240;28;20193;-84
2023/10/05 12:00:08;;;;;;;20.40;8.52;;;10.30;99.90;;;;;;5056240;28;20185;-84
2023/10/05 12:02:35;;;;;;;20.02;9.35;;;10.30;99.90;;;;;;5054729;28;20193;-84
2023/10/05 12:05:07;;;;;;;18.55;9.45;;;10.40;99.90;;;;;;5088399;28;20192;-84
2023/10/05 12:07:38;;;;;;;18.73;9.23;;;10.40;99.90;;;;;;5058357;28;20196;-85
2023/10/05 12:10:09;;;;;;;16.02;9.57;;;10.40;99.90;;;;;;5057360;28;20651;-84
2023/10/05 12:12:41;;;;;;;19.33;9.50;;;10.30;99.90;;;;;;5058989;28;20218;-84
2023/10/05 12:15:17;;;;;;;18.52;10.48;;;10.30;99.90;;;;;;5062132;28;20231;-83
2023/10/05 12:17:45;;;;;;;14.75;8.25;;;10.30;99.90;;;;;;5058447;28;20197;-83
2023/10/05 12:20:14;;;;;;;18.65;9.65;;;10.30;99.90;;;;;;5083735;28;20220;-84
2023/10/05 12:22:44;;;;;;;20.27;9.95;;;10.30;99.90;;;;;;5059520;28;20216;-84
2023/10/05 12:25:16;;;;;;;25.67;11.52;;;10.30;99.90;;;;;;5049841;28;20193;-84
2023/10/05 12:27:45;;;;;;;20.67;10.05;;;10.40;99.90;;;;;;5044628;28;20205;-83
2023/10/05 12:30:15;;;;;;;20.38;10.00;;;10.40;99.90;;;;;;5058836;28;20560;-84
2023/10/05 12:32:44;;;;;;;20.58;10.63;;;10.40;99.90;;;;;;5089609;28;20207;-83
2023/10/05 12:35:13;;;;;;;24.33;10.18;;;10.30;99.90;;;;;;5047509;28;20652;-84
2023/10/05 12:37:44;;;;;;;18.35;9.85;;;10.40;99.90;;;;;;5056942;28;20674;-84
2023/10/05 12:40:26;;;;;;;17.02;9.55;;;10.40;99.90;;;;;;5055889;28;20186;-84
2023/10/05 12:42:54;;;;;;;21.73;9.52;;;10.40;99.90;;;;;;5048710;28;20185;-84
2023/10/05 12:45:25;;;;;;;22.90;9.68;;;10.40;99.90;;;;;;5049566;28;20180;-84
2023/10/05 12:47:54;;;;;;;17.45;9.82;;;10.40;99.90;;;;;;5057962;28;20697;-83
2023/10/05 12:50:25;;;;;;;21.10;10.18;;;10.40;99.90;;;;;;5058756;28;20189;-84
2023/10/05 12:52:54;;;;;;;23.42;10.30;;;10.40;99.90;;;;;;5091970;28;20570;-83
2023/10/05 12:55:23;;;;;;;18.58;9.25;;;10.40;99.90;;;;;;5051074;28;20540;-84
2023/10/05 12:57:52;;;;;;;14.88;8.05;;;10.40;99.90;;;;;;5058417;28;20655;-83
2023/10/05 13:00:22;;;;;;;16.40;8.05;;;10.40;99.90;;;;;;5061211;28;20189;-83
2023/10/05 13:02:53;;;;;;;18.70;8.93;;;10.40;99.90;;;;;;5050196;28;20596;-84
2023/10/05 13:05:29;;;;;;;19.15;8.32;;;10.40;99.90;;;;;;5055380;28;20193;-83
2023/10/05 13:08:02;;;;;;;13.20;7.78;;;10.40;99.90;;;;;;5066517;28;20216;-83
2023/10/05 13:10:32;;;;;;;14.43;7.97;;;10.40;99.90;;;;;;5063627;28;20177;-84
2023/10/05 13:13:00;;;;;;;16.67;7.32;;;10.40;99.90;;;;;;5060359;28;20212;-84
2023/10/05 13:15:32;;;;;;;15.98;7.78;;;10.40;99.90;;;;;;5048776;28;20177;-83
2023/10/05 13:18:19;;;;;;;14.38;6.93;;;10.40;99.90;;;;;;5089476;28;20224;-84
2023/10/05 13:20:49;;;;;;;15.45;6.13;;;10.40;99.90;;;;;;5048130;28;20193;-84
2023/10/05 13:23:19;;;;;;;10.57;5.82;;;10.40;99.90;;;;;;5055924;28;20194;-84
2023/10/05 13:25:51;;;;;;;11.50;6.20;;;10.40;99.90;;;;;;5061905;28;20189;-84
2023/10/05 13:28:21;;;;;;;11.20;6.28;;;10.40;99.90;;;;;;5057194;28;20653;-84